Time;durP1;ratioP1;P1;durP2;ratioP2;P2;SDS_P1;SDS_P2;PMS_P1;PMS_P2;Temp;Humidity;BMP_temperature;BMP_pressure;BME280_temperature;BME280_humidity;BME280_pressure;Samples;Min_cycle;Max_cycle;Signal;HPM_P1;HPM_P2
2022/05/12 00:00:30;;;;;;;6.07;1.05;;;12.30;99.90;;;;;;5032096;28;20509;-70
2022/05/12 00:02:56;;;;;;;9.30;1.42;;;12.30;99.90;;;;;;5032243;28;20030;-70
2022/05/12 00:05:22;;;;;;;5.90;1.05;;;12.20;99.90;;;;;;5031906;28;20498;-70
2022/05/12 00:07:48;;;;;;;5.60;1.20;;;12.20;99.90;;;;;;5031790;28;20517;-70
2022/05/12 00:10:16;;;;;;;5.65;1.13;;;12.20;99.90;;;;;;5031868;28;20128;-70
2022/05/12 00:12:43;;;;;;;4.78;1.00;;;12.10;99.90;;;;;;5031853;28;20103;-70
2022/05/12 00:15:16;;;;;;;5.82;1.13;;;12.10;99.90;;;;;;5032021;28;20049;-70
2022/05/12 00:17:44;;;;;;;6.47;1.13;;;12.10;99.90;;;;;;5031792;28;20578;-70
2022/05/12 00:20:11;;;;;;;5.95;1.30;;;12.00;99.90;;;;;;5031979;28;20501;-70
2022/05/12 00:22:37;;;;;;;4.82;1.00;;;12.00;99.90;;;;;;5035819;28;20045;-70
2022/05/12 00:25:03;;;;;;;6.22;1.00;;;11.90;99.90;;;;;;5036080;28;20120;-70
2022/05/12 00:27:29;;;;;;;5.43;0.90;;;11.90;99.90;;;;;;5036300;28;20547;-70
2022/05/12 00:29:54;;;;;;;6.10;1.10;;;11.90;99.90;;;;;;5035754;28;20041;-70
2022/05/12 00:32:20;;;;;;;8.77;1.25;;;11.90;99.90;;;;;;5035648;28;20041;-70
2022/05/12 00:34:45;;;;;;;5.35;1.20;;;11.80;99.90;;;;;;5019173;28;20037;-70
2022/05/12 00:37:11;;;;;;;4.55;1.27;;;11.80;99.90;;;;;;5035791;28;20034;-70
2022/05/12 00:39:36;;;;;;;5.95;1.10;;;11.80;99.90;;;;;;5035466;28;20045;-70
2022/05/12 00:42:02;;;;;;;4.03;1.10;;;11.70;99.90;;;;;;5035498;28;20037;-70
2022/05/12 00:44:28;;;;;;;5.45;0.90;;;11.70;99.90;;;;;;5035429;28;20409;-70
2022/05/12 00:46:53;;;;;;;4.35;1.27;;;11.60;99.90;;;;;;5035365;28;20034;-70
2022/05/12 00:49:22;;;;;;;5.88;1.15;;;11.70;99.90;;;;;;5035349;28;20041;-70
2022/05/12 00:52:01;;;;;;;5.20;1.10;;;11.60;99.90;;;;;;5035568;28;20045;-70
2022/05/12 00:54:42;;;;;;;4.57;1.10;;;11.60;99.90;;;;;;5035306;28;20568;-70
2022/05/12 00:57:10;;;;;;;4.60;1.10;;;11.60;99.90;;;;;;5035303;28;20072;-70
2022/05/12 00:59:37;;;;;;;6.20;1.40;;;11.50;99.90;;;;;;5018978;28;20037;-70
2022/05/12 01:02:08;;;;;;;3.90;0.90;;;11.50;99.90;;;;;;5035129;28;20048;-70
2022/05/12 01:04:34;;;;;;;6.97;1.05;;;11.50;99.90;;;;;;5035583;28;20382;-70
2022/05/12 01:07:00;;;;;;;7.90;1.65;;;11.40;99.90;;;;;;5036468;28;20037;-70
2022/05/12 01:09:27;;;;;;;4.68;1.00;;;11.40;99.90;;;;;;5035002;28;20037;-70
2022/05/12 01:11:54;;;;;;;5.65;1.50;;;11.40;99.90;;;;;;5034969;28;20045;-70
2022/05/12 01:14:20;;;;;;;4.13;1.40;;;11.40;99.90;;;;;;5034895;28;20088;-70
2022/05/12 01:16:50;;;;;;;4.47;1.17;;;11.30;99.90;;;;;;5034806;28;20041;-70
2022/05/12 01:19:28;;;;;;;5.30;1.30;;;11.30;99.90;;;;;;5034787;28;20033;-70
2022/05/12 01:21:54;;;;;;;4.93;1.20;;;11.30;99.90;;;;;;5034761;28;20038;-70
2022/05/12 01:24:29;;;;;;;5.85;1.00;;;11.30;99.90;;;;;;5034946;28;20036;-70
2022/05/12 01:26:55;;;;;;;5.18;1.10;;;11.30;99.90;;;;;;5034615;28;20088;-70
2022/05/12 01:29:21;;;;;;;5.03;1.00;;;11.30;99.90;;;;;;5034620;28;20072;-70
2022/05/12 01:31:47;;;;;;;4.45;1.17;;;11.30;99.90;;;;;;5034029;28;20041;-70
2022/05/12 01:34:13;;;;;;;3.28;1.10;;;11.30;99.90;;;;;;5034237;28;20041;-70
2022/05/12 01:36:40;;;;;;;4.30;1.10;;;11.30;99.90;;;;;;5017916;28;20037;-70
2022/05/12 01:39:07;;;;;;;3.25;1.20;;;11.30;99.90;;;;;;5034688;28;20057;-70
2022/05/12 01:41:33;;;;;;;4.38;0.93;;;11.30;99.90;;;;;;5034315;28;20064;-70
2022/05/12 01:44:01;;;;;;;4.35;1.20;;;11.30;99.90;;;;;;5034371;28;20041;-70
2022/05/12 01:46:27;;;;;;;3.13;1.33;;;11.20;99.90;;;;;;5034241;28;20163;-70
2022/05/12 01:48:53;;;;;;;5.13;1.13;;;11.20;99.90;;;;;;5034311;28;20076;-70
2022/05/12 01:51:18;;;;;;;5.28;0.82;;;11.20;99.90;;;;;;5034540;28;20049;-70
2022/05/12 01:53:44;;;;;;;6.07;1.30;;;11.20;99.90;;;;;;5034186;28;20045;-69
2022/05/12 01:56:10;;;;;;;3.30;1.10;;;11.20;99.90;;;;;;5017482;28;20040;-70
2022/05/12 01:58:36;;;;;;;6.07;1.20;;;11.10;99.90;;;;;;5034176;28;20053;-70
2022/05/12 02:01:02;;;;;;;4.75;1.35;;;11.10;99.90;;;;;;5033990;28;20047;-70
2022/05/12 02:03:27;;;;;;;5.22;1.33;;;11.10;99.90;;;;;;5017726;28;20042;-70
2022/05/12 02:05:53;;;;;;;5.78;1.10;;;11.10;99.90;;;;;;5033966;28;20041;-70
2022/05/12 02:08:20;;;;;;;5.65;1.20;;;11.10;99.90;;;;;;5034146;28;20080;-70
2022/05/12 02:10:48;;;;;;;4.78;1.58;;;11.10;99.90;;;;;;5033944;28;20573;-70
2022/05/12 02:13:15;;;;;;;4.53;1.35;;;11.10;99.90;;;;;;5033816;28;20045;-70
2022/05/12 02:15:42;;;;;;;4.70;1.20;;;11.10;99.90;;;;;;5033776;28;20405;-70
2022/05/12 02:18:08;;;;;;;6.22;1.45;;;11.00;99.90;;;;;;5033749;28;20128;-70
2022/05/12 02:20:34;;;;;;;5.97;1.42;;;11.00;99.90;;;;;;5033604;28;20091;-70
2022/05/12 02:23:00;;;;;;;5.38;1.10;;;11.00;99.90;;;;;;5033612;28;20037;-70
2022/05/12 02:25:25;;;;;;;5.55;1.48;;;11.00;99.90;;;;;;5033869;28;20041;-70
2022/05/12 02:27:52;;;;;;;4.65;1.30;;;11.00;99.90;;;;;;5033761;28;20038;-70
2022/05/12 02:30:25;;;;;;;6.88;1.33;;;11.00;99.90;;;;;;5033512;28;20049;-70
2022/05/12 02:32:51;;;;;;;5.35;1.27;;;10.90;99.90;;;;;;5033488;28;20037;-70
2022/05/12 02:35:17;;;;;;;7.03;1.77;;;10.90;99.90;;;;;;5033396;28;20048;-70
2022/05/12 02:37:43;;;;;;;5.13;2.08;;;10.90;99.90;;;;;;5033548;28;20058;-70
2022/05/12 02:40:11;;;;;;;4.63;1.13;;;10.80;99.90;;;;;;5033237;28;20095;-70
2022/05/12 02:42:37;;;;;;;4.80;1.30;;;10.80;99.90;;;;;;5033146;28;20045;-70
2022/05/12 02:45:05;;;;;;;6.00;1.63;;;10.80;99.90;;;;;;5032949;28;20060;-70
2022/05/12 02:47:31;;;;;;;4.38;1.35;;;10.80;99.90;;;;;;5016560;28;20034;-70
2022/05/12 02:49:56;;;;;;;5.75;1.40;;;10.70;99.90;;;;;;5016636;28;20030;-70
2022/05/12 02:52:22;;;;;;;6.10;1.50;;;10.70;99.90;;;;;;5033057;28;20029;-70
2022/05/12 02:54:47;;;;;;;7.80;1.45;;;10.70;99.90;;;;;;5016567;28;20172;-70
2022/05/12 02:57:13;;;;;;;6.90;1.60;;;10.70;99.90;;;;;;5032857;28;20072;-70
2022/05/12 02:59:39;;;;;;;6.97;1.80;;;10.70;99.90;;;;;;5032977;28;20110;-70
2022/05/12 03:02:06;;;;;;;5.20;1.50;;;10.70;99.90;;;;;;5016329;28;20045;-70
2022/05/12 03:04:33;;;;;;;7.38;1.80;;;10.70;99.90;;;;;;5033092;28;20494;-70
2022/05/12 03:06:59;;;;;;;7.43;1.20;;;10.80;99.90;;;;;;5032974;28;20045;-70
2022/05/12 03:09:25;;;;;;;5.45;1.42;;;10.80;99.90;;;;;;5032742;28;20387;-70
2022/05/12 03:11:50;;;;;;;6.22;1.80;;;10.70;99.90;;;;;;5032727;28;20043;-70
2022/05/12 03:14:16;;;;;;;8.05;1.70;;;10.70;99.90;;;;;;5032723;28;20108;-70
2022/05/12 03:16:42;;;;;;;8.07;2.10;;;10.70;99.90;;;;;;5032556;28;20076;-70
2022/05/12 03:19:08;;;;;;;5.30;1.70;;;10.70;99.90;;;;;;5032822;28;20057;-70
2022/05/12 03:21:34;;;;;;;6.30;1.95;;;10.70;99.90;;;;;;5032408;28;20042;-70
2022/05/12 03:24:00;;;;;;;10.68;1.98;;;10.70;99.90;;;;;;5032792;28;20091;-70
2022/05/12 03:26:26;;;;;;;8.13;2.25;;;10.70;99.90;;;;;;5032382;28;20042;-70
2022/05/12 03:28:52;;;;;;;7.45;1.90;;;10.70;99.90;;;;;;5032430;28;20414;-70
2022/05/12 03:31:18;;;;;;;7.82;2.08;;;10.70;99.90;;;;;;5032374;28;20060;-70
2022/05/12 03:33:46;;;;;;;9.07;1.88;;;10.70;99.90;;;;;;5032365;28;20081;-70
2022/05/12 03:36:12;;;;;;;7.72;1.77;;;10.70;99.90;;;;;;5032230;28;20077;-70
2022/05/12 03:38:37;;;;;;;7.15;1.77;;;10.70;99.90;;;;;;5032236;28;20084;-70
2022/05/12 03:41:03;;;;;;;9.57;2.17;;;10.70;99.90;;;;;;5032201;28;20459;-70
2022/05/12 03:46:13;;;;;;;6.03;1.80;;;10.60;99.90;;;;;;5032114;28;20057;-70
2022/05/12 03:48:40;;;;;;;11.90;2.05;;;10.50;99.90;;;;;;5015690;28;20041;-70
2022/05/12 03:51:06;;;;;;;7.28;2.20;;;10.50;99.90;;;;;;5032099;28;20076;-70
2022/05/12 03:53:33;;;;;;;8.40;1.80;;;10.50;99.90;;;;;;5032093;28;20037;-70
2022/05/12 03:55:59;;;;;;;9.40;1.95;;;10.40;99.90;;;;;;5031180;28;20046;-70
2022/05/12 03:58:25;;;;;;;6.25;1.85;;;10.40;99.90;;;;;;5032056;28;20128;-70
2022/05/12 04:00:52;;;;;;;9.88;2.38;;;10.40;99.90;;;;;;5031945;28;20124;-70
2022/05/12 04:03:18;;;;;;;9.90;2.20;;;10.30;99.90;;;;;;5015430;28;20413;-70
2022/05/12 04:05:44;;;;;;;6.82;1.98;;;10.30;99.90;;;;;;5031816;28;20046;-70
2022/05/12 04:08:09;;;;;;;5.95;2.10;;;10.40;99.90;;;;;;5031884;28;20041;-70
2022/05/12 04:10:35;;;;;;;10.02;2.17;;;10.30;99.90;;;;;;5032104;28;20037;-70
2022/05/12 04:13:01;;;;;;;7.03;2.13;;;10.30;99.90;;;;;;5031831;28;20516;-70
2022/05/12 04:15:26;;;;;;;10.68;2.40;;;10.40;99.90;;;;;;5015372;28;20056;-70
2022/05/12 04:18:05;;;;;;;10.15;2.92;;;10.40;99.90;;;;;;5031729;28;20124;-70
2022/05/12 04:20:32;;;;;;;7.57;2.40;;;10.40;99.90;;;;;;5031861;28;20571;-70
2022/05/12 04:22:58;;;;;;;7.38;2.10;;;10.30;99.90;;;;;;5031743;28;20048;-70
2022/05/12 04:25:24;;;;;;;9.80;2.55;;;10.40;99.90;;;;;;5031723;28;20041;-70
2022/05/12 04:27:50;;;;;;;13.30;3.15;;;10.40;99.90;;;;;;5031641;28;20038;-70
2022/05/12 04:30:18;;;;;;;12.55;3.05;;;10.40;99.90;;;;;;5031655;28;20059;-70
2022/05/12 04:32:44;;;;;;;10.13;3.00;;;10.40;99.90;;;;;;5031661;28;20033;-70
2022/05/12 04:35:14;;;;;;;11.60;3.47;;;10.50;99.90;;;;;;5031640;28;20044;-70
2022/05/12 04:37:47;;;;;;;7.07;2.35;;;10.50;99.90;;;;;;5031558;28;20053;-70
2022/05/12 04:40:17;;;;;;;13.63;3.30;;;10.50;99.90;;;;;;5031521;28;20517;-70
2022/05/12 04:42:43;;;;;;;11.70;3.17;;;10.50;99.90;;;;;;5031608;28;20048;-70
2022/05/12 04:45:11;;;;;;;12.60;2.90;;;10.50;99.90;;;;;;5031862;28;20041;-70
2022/05/12 04:47:38;;;;;;;10.48;3.30;;;10.50;99.90;;;;;;5031465;28;20551;-70
2022/05/12 04:50:06;;;;;;;7.28;2.92;;;10.60;99.90;;;;;;5031486;28;20048;-70
2022/05/12 04:52:31;;;;;;;12.95;3.33;;;10.60;99.90;;;;;;5031433;28;20505;-70
2022/05/12 04:54:57;;;;;;;7.93;3.13;;;10.70;99.90;;;;;;5031488;28;20053;-70
2022/05/12 04:57:23;;;;;;;10.88;3.50;;;10.70;99.90;;;;;;5031214;28;20402;-70
2022/05/12 04:59:51;;;;;;;8.63;3.17;;;10.80;99.90;;;;;;5014878;28;20073;-70
2022/05/12 05:02:18;;;;;;;9.32;3.35;;;10.80;99.90;;;;;;5031671;28;20063;-70
2022/05/12 05:04:43;;;;;;;13.73;4.30;;;10.90;99.90;;;;;;5031452;28;20044;-70
2022/05/12 05:07:10;;;;;;;9.43;3.67;;;10.90;99.90;;;;;;5016512;28;20037;-70
2022/05/12 05:09:37;;;;;;;8.63;3.65;;;10.90;99.90;;;;;;5035300;28;20042;-70
2022/05/12 05:12:03;;;;;;;11.25;3.65;;;11.00;99.90;;;;;;5034959;28;20048;-70
2022/05/12 05:14:29;;;;;;;8.38;3.92;;;11.00;99.90;;;;;;5034937;28;20049;-70
2022/05/12 05:16:54;;;;;;;14.75;4.10;;;11.00;99.90;;;;;;5018563;28;20088;-70
2022/05/12 05:19:20;;;;;;;9.68;3.80;;;11.10;99.90;;;;;;5034834;28;20049;-70
2022/05/12 05:21:45;;;;;;;8.52;4.05;;;11.10;99.90;;;;;;5034755;28;20045;-70
2022/05/12 05:24:11;;;;;;;11.45;4.10;;;11.20;99.90;;;;;;5035030;28;20052;-70
2022/05/12 05:26:37;;;;;;;13.02;3.85;;;11.30;99.90;;;;;;5034971;28;20490;-70
2022/05/12 05:29:03;;;;;;;14.65;4.20;;;11.30;99.90;;;;;;5034927;28;20379;-70
2022/05/12 05:31:28;;;;;;;12.18;3.95;;;11.30;99.90;;;;;;5034862;28;20409;-70
2022/05/12 05:33:55;;;;;;;13.15;4.15;;;11.30;99.90;;;;;;5034603;28;20053;-70
2022/05/12 05:36:20;;;;;;;10.52;4.10;;;11.30;99.90;;;;;;5034756;28;20057;-70
2022/05/12 05:38:47;;;;;;;11.07;4.47;;;11.40;99.90;;;;;;5034462;28;20494;-70
2022/05/12 05:41:13;;;;;;;12.55;4.43;;;11.40;99.90;;;;;;5034368;28;20052;-70
2022/05/12 05:43:39;;;;;;;10.93;4.57;;;11.40;99.90;;;;;;5034355;28;20038;-70
2022/05/12 05:46:05;;;;;;;9.82;4.40;;;11.50;99.90;;;;;;5034314;28;20045;-70
2022/05/12 05:48:31;;;;;;;14.88;4.32;;;11.50;99.90;;;;;;5034338;28;20037;-70
2022/05/12 05:53:42;;;;;;;13.27;5.10;;;11.50;99.90;;;;;;5034506;28;20049;-70
2022/05/12 05:56:14;;;;;;;13.75;5.63;;;11.60;99.90;;;;;;5034021;28;20037;-70
2022/05/12 05:58:41;;;;;;;13.88;4.93;;;11.60;99.90;;;;;;5017712;28;20087;-70
2022/05/12 06:01:06;;;;;;;12.63;5.97;;;11.70;99.90;;;;;;5034498;28;20105;-70
2022/05/12 06:03:32;;;;;;;13.30;6.68;;;11.80;99.90;;;;;;5033962;28;20073;-70
2022/05/12 06:05:58;;;;;;;16.13;6.05;;;11.90;99.90;;;;;;5033873;28;20053;-70
2022/05/12 06:08:24;;;;;;;12.65;6.40;;;11.90;99.90;;;;;;5033968;28;20045;-70
2022/05/12 06:10:50;;;;;;;14.25;6.90;;;12.00;99.90;;;;;;5033917;28;20053;-70
2022/05/12 06:13:16;;;;;;;15.13;6.70;;;12.00;99.90;;;;;;5033846;28;20033;-70
2022/05/12 06:15:43;;;;;;;13.48;6.95;;;12.10;99.90;;;;;;5033791;28;20045;-70
2022/05/12 06:18:14;;;;;;;14.00;6.40;;;12.20;99.90;;;;;;5017004;28;20084;-70
2022/05/12 06:20:41;;;;;;;11.73;6.13;;;12.30;99.90;;;;;;5034010;28;20061;-70
2022/05/12 06:23:08;;;;;;;15.32;6.15;;;12.40;99.90;;;;;;5034190;28;20120;-70
2022/05/12 06:25:34;;;;;;;14.50;6.50;;;12.50;99.90;;;;;;5017292;28;20482;-70
2022/05/12 06:28:00;;;;;;;12.73;6.28;;;12.50;99.90;;;;;;5033624;28;20041;-70
2022/05/12 06:30:27;;;;;;;12.10;6.18;;;12.60;99.90;;;;;;5033522;28;20056;-70
2022/05/12 06:32:56;;;;;;;12.13;6.15;;;12.70;99.90;;;;;;5033464;28;20481;-71
2022/05/12 06:35:22;;;;;;;16.63;5.85;;;12.80;99.90;;;;;;5033741;28;20049;-70
2022/05/12 06:37:48;;;;;;;13.93;6.00;;;12.90;99.90;;;;;;5033461;28;20132;-70
2022/05/12 06:40:14;;;;;;;10.02;5.40;;;13.00;99.90;;;;;;5033283;28;20132;-70
2022/05/12 06:42:41;;;;;;;11.23;5.60;;;13.10;99.90;;;;;;5033386;28;20035;-70
2022/05/12 06:45:09;;;;;;;11.73;5.22;;;13.20;99.90;;;;;;5016774;28;20072;-70
2022/05/12 06:47:34;;;;;;;14.63;5.93;;;13.20;99.90;;;;;;5033393;28;20033;-70
2022/05/12 06:50:03;;;;;;;13.65;5.70;;;13.30;99.90;;;;;;5033198;28;20067;-70
2022/05/12 06:52:28;;;;;;;13.05;5.80;;;13.30;99.90;;;;;;5033336;28;20128;-70
2022/05/12 06:54:54;;;;;;;11.75;5.28;;;13.40;99.90;;;;;;5033042;28;20117;-70
2022/05/12 06:57:21;;;;;;;10.57;4.68;;;13.50;99.90;;;;;;5033060;28;20087;-70
2022/05/12 06:59:47;;;;;;;13.35;4.45;;;13.60;99.90;;;;;;5032963;28;20045;-70
2022/05/12 07:02:13;;;;;;;10.20;3.95;;;13.60;99.90;;;;;;5032842;28;20041;-70
2022/05/12 07:04:39;;;;;;;10.65;3.58;;;13.70;99.90;;;;;;5033485;28;20041;-70
2022/05/12 07:07:05;;;;;;;9.07;3.47;;;13.80;99.90;;;;;;5032817;28;20112;-70
2022/05/12 07:09:31;;;;;;;9.48;4.00;;;13.90;99.90;;;;;;5032775;28;20462;-70
2022/05/12 07:11:57;;;;;;;8.85;3.72;;;14.00;99.90;;;;;;5032709;28;20087;-70
2022/05/12 07:14:23;;;;;;;8.70;3.08;;;14.00;99.90;;;;;;5032666;28;20041;-70
2022/05/12 07:16:48;;;;;;;8.90;2.60;;;14.20;99.90;;;;;;5032550;28;20044;-70
2022/05/12 07:19:17;;;;;;;9.15;2.85;;;14.20;99.90;;;;;;5032640;28;20042;-70
2022/05/12 07:27:13;;;;;;;6.53;2.17;;;14.50;99.90;;;;;;5032750;28;20049;-70
2022/05/12 07:29:39;;;;;;;8.13;1.98;;;14.60;99.90;;;;;;5031969;28;20493;-70
2022/05/12 07:32:05;;;;;;;9.13;2.58;;;14.80;99.90;;;;;;5032044;28;20052;-70
2022/05/12 07:34:31;;;;;;;8.05;2.55;;;14.80;99.90;;;;;;5032374;28;20509;-70
2022/05/12 07:36:57;;;;;;;7.63;1.60;;;14.80;99.90;;;;;;5032262;28;20082;-70
2022/05/12 07:39:27;;;;;;;7.78;1.98;;;14.90;99.90;;;;;;5032288;28;20042;-70
2022/05/12 07:41:53;;;;;;;7.35;1.85;;;15.00;99.90;;;;;;5032777;28;20045;-70
2022/05/12 07:44:19;;;;;;;9.25;2.10;;;15.00;99.90;;;;;;5015736;28;20045;-70
2022/05/12 07:46:46;;;;;;;8.10;1.73;;;15.20;99.90;;;;;;5032354;28;20037;-70
2022/05/12 07:49:12;;;;;;;8.18;1.75;;;15.30;99.90;;;;;;5032159;28;20123;-70
2022/05/12 07:51:38;;;;;;;6.70;1.70;;;15.50;99.90;;;;;;5032101;28;20162;-70
2022/05/12 07:54:04;;;;;;;10.77;1.83;;;15.50;99.90;;;;;;5032043;28;20048;-70
2022/05/12 07:56:30;;;;;;;7.88;1.80;;;15.60;99.90;;;;;;5015401;28;20037;-70
2022/05/12 07:58:57;;;;;;;9.68;1.75;;;15.70;99.90;;;;;;5032016;28;20091;-70
2022/05/12 08:01:23;;;;;;;10.95;2.00;;;15.80;99.90;;;;;;5015467;28;20075;-70
2022/05/12 08:03:49;;;;;;;7.55;1.42;;;15.90;99.90;;;;;;5031914;28;20040;-70
2022/05/12 08:06:16;;;;;;;8.05;1.73;;;16.00;99.90;;;;;;5031831;28;20410;-70
2022/05/12 08:08:43;;;;;;;7.30;1.80;;;16.20;99.90;;;;;;5031912;28;20513;-70
2022/05/12 08:11:10;;;;;;;6.45;1.50;;;16.30;99.90;;;;;;5032695;28;20063;-70
2022/05/12 08:13:37;;;;;;;7.57;1.48;;;16.30;99.90;;;;;;5031824;28;20512;-70
2022/05/12 08:16:04;;;;;;;8.95;1.98;;;16.30;99.90;;;;;;5031787;28;20071;-70
2022/05/12 08:18:31;;;;;;;7.25;1.33;;;16.10;99.90;;;;;;5032018;28;20077;-70
2022/05/12 08:20:58;;;;;;;4.90;1.30;;;16.00;99.90;;;;;;5015256;28;20042;-70
2022/05/12 08:23:23;;;;;;;8.35;1.63;;;15.90;99.90;;;;;;5032054;28;20045;-70
2022/05/12 08:25:50;;;;;;;7.38;1.88;;;15.90;99.90;;;;;;5031942;28;20402;-70
2022/05/12 08:28:19;;;;;;;9.13;2.00;;;16.20;99.90;;;;;;5031685;28;20406;-70
2022/05/12 08:30:46;;;;;;;9.90;1.73;;;16.40;99.90;;;;;;5031914;28;20041;-70
2022/05/12 08:33:12;;;;;;;9.82;2.03;;;16.50;99.90;;;;;;5031668;28;20049;-70
2022/05/12 08:35:39;;;;;;;6.43;1.60;;;16.80;99.90;;;;;;5031652;28;20041;-70
2022/05/12 08:38:06;;;;;;;7.65;1.75;;;16.80;99.90;;;;;;5015099;28;20123;-70
2022/05/12 08:40:47;;;;;;;7.00;1.40;;;16.80;99.90;;;;;;5031512;28;20520;-70
2022/05/12 08:43:39;;;;;;;6.53;1.55;;;17.00;99.90;;;;;;5035411;28;20119;-70
2022/05/12 08:46:09;;;;;;;11.97;1.67;;;17.20;99.90;;;;;;5027046;28;20498;-70
2022/05/12 08:48:42;;;;;;;5.78;1.35;;;17.30;99.90;;;;;;5035417;28;20276;-70
2022/05/12 08:51:08;;;;;;;7.50;1.40;;;17.20;99.90;;;;;;5035421;28;20501;-70
2022/05/12 08:53:47;;;;;;;7.68;2.22;;;17.10;99.90;;;;;;5035323;28;20387;-70
2022/05/12 08:56:14;;;;;;;6.82;1.30;;;17.20;99.90;;;;;;5018642;28;20081;-70
2022/05/12 08:58:41;;;;;;;9.50;1.75;;;17.20;99.90;;;;;;5035508;28;20049;-70
2022/05/12 09:01:32;;;;;;;8.20;1.52;;;17.20;99.90;;;;;;5018659;28;20091;-70
2022/05/12 09:04:10;;;;;;;9.95;1.63;;;17.30;99.90;;;;;;5035173;28;20050;-70
2022/05/12 09:07:02;;;;;;;5.65;1.35;;;17.50;99.90;;;;;;5035040;28;20039;-70
2022/05/12 09:10:05;;;;;;;6.93;1.60;;;17.60;99.90;;;;;;5035115;28;20045;-70
2022/05/12 09:12:51;;;;;;;9.30;1.83;;;17.80;99.90;;;;;;5035006;28;20383;-70
2022/05/12 09:15:24;;;;;;;10.43;2.10;;;18.10;99.90;;;;;;5035254;28;20041;-70
2022/05/12 09:17:57;;;;;;;7.00;1.50;;;18.20;99.90;;;;;;5034906;28;20501;-70
2022/05/12 09:20:24;;;;;;;5.55;1.40;;;18.30;99.90;;;;;;5034888;28;20053;-70
2022/05/12 09:22:50;;;;;;;8.32;1.70;;;18.10;99.90;;;;;;5034824;28;20046;-70
2022/05/12 09:25:36;;;;;;;9.68;1.58;;;18.00;99.90;;;;;;5034763;28;20041;-70
2022/05/12 09:28:25;;;;;;;7.38;2.00;;;18.10;99.90;;;;;;5034634;28;20117;-70
2022/05/12 09:30:52;;;;;;;12.98;1.80;;;18.20;99.90;;;;;;5034720;28;20049;-70
2022/05/12 09:33:34;;;;;;;8.23;1.77;;;18.30;99.90;;;;;;5034903;28;20041;-70
2022/05/12 09:36:03;;;;;;;5.13;1.30;;;18.20;99.90;;;;;;5034548;28;20049;-70
2022/05/12 09:38:29;;;;;;;9.13;1.13;;;18.10;99.90;;;;;;5018954;28;20465;-70
2022/05/12 09:40:56;;;;;;;8.68;1.90;;;18.10;99.10;;;;;;5034469;28;20041;-70
2022/05/12 09:43:29;;;;;;;5.07;1.20;;;17.90;99.90;;;;;;5034428;28;20405;-69
2022/05/12 09:46:29;;;;;;;6.40;1.20;;;17.90;94.70;;;;;;5017844;28;20041;-70
2022/05/12 09:49:15;;;;;;;7.47;1.48;;;18.10;99.90;;;;;;5029831;28;20060;-70
2022/05/12 09:51:41;;;;;;;5.50;1.20;;;18.20;96.30;;;;;;5034354;28;20049;-70
2022/05/12 09:54:15;;;;;;;5.03;1.05;;;18.50;95.40;;;;;;5033255;28;20044;-70
2022/05/12 09:56:46;;;;;;;3.88;0.88;;;18.70;97.10;;;;;;5034026;28;20095;-70
2022/05/12 09:59:14;;;;;;;4.90;0.98;;;18.80;90.60;;;;;;5017937;28;20081;-70
2022/05/12 10:01:55;;;;;;;8.35;1.60;;;18.90;90.20;;;;;;5034027;28;20077;-69
2022/05/12 10:10:21;;;;;;;;;;;19.30;74.90;;;;;;5034401;28;20045;-70
2022/05/12 10:13:16;;;;;;;5.13;0.90;;;19.20;69.80;;;;;;5034162;28;19917;-70
2022/05/12 10:15:43;;;;;;;4.55;1.10;;;19.20;77.00;;;;;;5017676;28;20085;-70
2022/05/12 10:18:09;;;;;;;5.32;0.98;;;19.10;80.00;;;;;;5033687;28;20076;-70
2022/05/12 10:20:41;;;;;;;4.40;1.15;;;19.10;75.60;;;;;;5033648;28;20084;-70
2022/05/12 10:23:21;;;;;;;7.43;1.17;;;19.10;74.20;;;;;;5033737;28;20037;-70
2022/05/12 10:26:07;;;;;;;5.75;1.23;;;19.20;72.30;;;;;;5033587;28;20073;-70
2022/05/12 10:28:43;;;;;;;4.47;0.90;;;18.90;69.90;;;;;;5033531;28;20490;-70
2022/05/12 10:31:26;;;;;;;9.30;1.45;;;18.80;74.80;;;;;;5033513;28;20105;-70
2022/05/12 10:34:08;;;;;;;5.43;1.17;;;19.00;74.10;;;;;;5033816;28;20087;-70
2022/05/12 10:36:50;;;;;;;5.53;1.30;;;19.10;74.60;;;;;;5017114;28;20037;-70
2022/05/12 10:39:47;;;;;;;9.45;1.55;;;19.20;73.30;;;;;;5033372;28;20091;-70
2022/05/12 10:42:53;;;;;;;6.45;1.30;;;19.10;72.40;;;;;;5033295;28;20052;-70
2022/05/12 10:45:27;;;;;;;4.78;1.20;;;18.90;69.90;;;;;;5033562;28;20045;-70
2022/05/12 10:48:11;;;;;;;11.90;1.00;;;18.90;68.70;;;;;;5033448;28;20064;-70
2022/05/12 10:50:57;;;;;;;4.57;0.90;;;19.00;70.20;;;;;;5033181;28;20057;-70
2022/05/12 10:53:41;;;;;;;6.55;0.95;;;19.00;68.00;;;;;;5033147;28;20042;-70
2022/05/12 10:56:24;;;;;;;5.85;1.08;;;19.00;73.20;;;;;;5033197;28;20081;-70
2022/05/12 10:59:00;;;;;;;;;;;19.30;70.90;;;;;;5033484;28;20099;-70
2022/05/12 11:01:32;;;;;;;5.38;1.10;;;19.30;58.60;;;;;;5032950;28;19927;-70
2022/05/12 11:04:14;;;;;;;4.63;0.88;;;19.30;66.80;;;;;;5032900;28;20041;-70
2022/05/12 11:06:45;;;;;;;5.72;1.38;;;19.20;65.60;;;;;;5032859;28;20045;-70
2022/05/12 11:09:19;;;;;;;6.25;1.35;;;19.10;65.70;;;;;;5032847;28;20087;-70
2022/05/12 11:11:50;;;;;;;3.45;0.88;;;19.00;64.30;;;;;;5033116;28;20041;-70
2022/05/12 11:14:28;;;;;;;5.57;1.20;;;18.90;64.80;;;;;;5016323;28;20041;-70
2022/05/12 11:17:06;;;;;;;5.38;1.20;;;19.20;65.90;;;;;;5032652;28;20045;-70
2022/05/12 11:19:32;;;;;;;5.35;0.95;;;19.40;67.80;;;;;;5032675;28;20049;-70
2022/05/12 11:22:29;;;;;;;3.67;0.73;;;19.30;64.70;;;;;;5016115;28;20064;-70
2022/05/12 11:25:06;;;;;;;6.03;1.30;;;19.00;62.60;;;;;;5032540;28;20048;-70
2022/05/12 11:29:41;;;;;;;6.00;0.95;;;19.00;64.90;;;;;;5032961;28;20041;-70
2022/05/12 11:30:44;;;;;;;3.70;1.05;;;19.30;71.10;;;;;;5032539;28;20049;-70
2022/05/12 11:33:25;;;;;;;6.30;1.60;;;19.80;68.40;;;;;;5032429;28;20053;-70
2022/05/12 11:35:53;;;;;;;5.43;1.33;;;20.10;68.70;;;;;;5032554;28;20049;-70
2022/05/12 11:38:40;;;;;;;6.00;1.30;;;20.20;67.60;;;;;;5032292;28;20506;-70
2022/05/12 11:41:27;;;;;;;4.22;1.05;;;20.50;60.60;;;;;;5032208;28;20045;-70
2022/05/12 11:44:24;;;;;;;5.60;1.20;;;20.70;61.60;;;;;;5032114;28;20048;-70
2022/05/12 11:47:20;;;;;;;5.25;0.93;;;20.80;60.20;;;;;;5031565;28;20099;-70
2022/05/12 11:50:24;;;;;;;4.63;0.98;;;20.60;59.20;;;;;;5032225;28;20075;-70
2022/05/12 11:53:03;;;;;;;4.20;1.10;;;20.60;57.60;;;;;;5032031;28;20041;-71
2022/05/12 11:55:55;;;;;;;6.45;1.10;;;20.90;56.70;;;;;;5032331;28;20127;-72
2022/05/12 11:58:42;;;;;;;6.00;1.35;;;21.10;60.10;;;;;;5032356;28;20171;-72
2022/05/12 12:01:20;;;;;;;4.15;1.08;;;21.30;58.30;;;;;;5031924;28;20037;-72
2022/05/12 12:03:53;;;;;;;6.03;1.05;;;21.10;55.90;;;;;;5015543;28;20033;-72
2022/05/12 12:06:44;;;;;;;4.68;1.08;;;21.10;59.50;;;;;;5031854;28;20494;-72
2022/05/12 12:09:27;;;;;;;4.13;0.80;;;21.20;58.10;;;;;;5031946;28;20033;-72
2022/05/12 12:11:53;;;;;;;4.75;1.17;;;21.40;56.60;;;;;;5031775;28;20383;-72
2022/05/12 12:14:47;;;;;;;6.18;1.00;;;21.50;57.00;;;;;;5031878;28;20041;-71
2022/05/12 12:17:25;;;;;;;6.60;1.00;;;21.50;55.80;;;;;;5031428;28;20092;-71
2022/05/12 12:19:56;;;;;;;4.38;0.90;;;21.10;52.70;;;;;;5032056;28;20041;-72
2022/05/12 12:22:36;;;;;;;3.58;0.90;;;20.80;55.10;;;;;;5031726;28;20132;-72
2022/05/12 12:25:16;;;;;;;4.38;1.10;;;20.70;53.50;;;;;;5031777;28;20045;-72
2022/05/12 12:27:55;;;;;;;3.70;0.93;;;20.50;56.70;;;;;;5015181;28;20041;-72
2022/05/12 12:30:37;;;;;;;5.20;0.80;;;20.40;57.20;;;;;;5031971;28;20108;-71
2022/05/12 12:33:11;;;;;;;4.22;1.02;;;20.70;58.60;;;;;;5031723;28;20076;-71
2022/05/12 12:36:00;;;;;;;5.53;1.02;;;21.10;56.70;;;;;;5032206;28;20091;-71
2022/05/12 12:38:44;;;;;;;6.15;1.17;;;21.30;58.00;;;;;;5032630;28;20048;-71
2022/05/12 12:41:38;;;;;;;4.70;0.82;;;21.10;54.10;;;;;;5031519;28;20049;-71
2022/05/12 12:44:23;;;;;;;6.47;0.77;;;21.10;55.00;;;;;;5028207;28;20498;-71
2022/05/12 12:47:13;;;;;;;4.70;1.00;;;21.00;54.00;;;;;;5031815;28;20042;-71
2022/05/12 12:50:10;;;;;;;5.20;1.20;;;20.70;54.80;;;;;;5031603;28;20033;-71
2022/05/12 12:52:41;;;;;;;4.60;1.20;;;20.40;55.00;;;;;;5031810;28;20052;-71
2022/05/12 12:58:00;;;;;;;5.70;1.00;;;20.30;56.90;;;;;;5031255;28;20041;-71
2022/05/12 13:00:35;;;;;;;3.80;1.10;;;20.70;57.80;;;;;;5015785;28;20401;-71
2022/05/12 13:03:01;;;;;;;6.70;1.02;;;21.10;55.30;;;;;;5031751;28;20064;-72
2022/05/12 13:05:28;;;;;;;3.50;0.93;;;21.30;54.10;;;;;;5032227;28;20541;-72
2022/05/12 13:07:58;;;;;;;4.28;1.00;;;21.20;53.90;;;;;;5031287;28;20471;-72
2022/05/12 13:10:24;;;;;;;4.65;1.10;;;21.30;53.20;;;;;;5031340;28;20077;-72
2022/05/12 13:12:59;;;;;;;4.43;0.80;;;21.40;52.50;;;;;;5031426;28;20049;-72
2022/05/12 13:15:25;;;;;;;3.03;0.88;;;21.30;50.90;;;;;;5031400;28;20042;-72
2022/05/12 13:17:56;;;;;;;3.75;0.90;;;21.10;52.90;;;;;;5031544;28;20103;-72
2022/05/12 13:20:25;;;;;;;5.65;0.95;;;21.20;51.80;;;;;;5031195;28;20053;-72
2022/05/12 13:22:59;;;;;;;5.50;0.90;;;21.30;53.20;;;;;;5031484;28;20076;-72